createdAt,value
2018-06-12T00:00:15.296Z,15.63
2018-06-12T00:02:44.527Z,15.51
2018-06-12T00:05:13.756Z,15.48
2018-06-12T00:07:42.965Z,15.20
2018-06-12T00:10:12.195Z,15.11
2018-06-12T00:12:41.422Z,15.06
2018-06-12T00:15:10.634Z,15.07
2018-06-12T00:17:39.876Z,15.01
2018-06-12T00:20:09.104Z,14.97
2018-06-12T00:22:38.459Z,14.91
2018-06-12T00:25:07.731Z,14.93
2018-06-12T00:27:36.958Z,15.02
2018-06-12T00:30:06.967Z,15.24
2018-06-12T00:32:36.247Z,14.91
2018-06-12T00:35:05.488Z,14.77
2018-06-12T00:37:34.759Z,14.71
2018-06-12T00:40:04.000Z,15.22
2018-06-12T00:42:33.242Z,15.45
2018-06-12T00:45:02.478Z,15.50
2018-06-12T00:47:31.687Z,15.47
2018-06-12T00:50:01.839Z,15.38
2018-06-12T00:52:31.063Z,15.18
2018-06-12T00:55:00.297Z,15.37
2018-06-12T00:57:29.508Z,15.19
2018-06-12T00:59:58.746Z,15.20
2018-06-12T01:02:27.965Z,15.26
2018-06-12T01:04:57.191Z,15.14
2018-06-12T01:07:26.425Z,14.93
2018-06-12T01:09:55.646Z,15.13
2018-06-12T01:12:24.887Z,15.20
2018-06-12T01:14:54.109Z,14.92
2018-06-12T01:17:23.439Z,14.69
2018-06-12T01:19:52.723Z,14.66
2018-06-12T01:22:21.949Z,14.61
2018-06-12T01:24:51.163Z,14.55
2018-06-12T01:27:20.399Z,14.58
2018-06-12T01:29:49.640Z,14.55
2018-06-12T01:32:18.863Z,14.53
2018-06-12T01:34:48.099Z,14.58
2018-06-12T01:37:17.392Z,14.62
2018-06-12T01:39:46.618Z,14.72
2018-06-12T01:42:15.867Z,14.72
2018-06-12T01:44:45.070Z,14.67
2018-06-12T01:47:14.323Z,14.67
2018-06-12T01:49:43.699Z,14.67
2018-06-12T01:52:12.902Z,14.68
2018-06-12T01:54:42.122Z,15.01
2018-06-12T01:57:11.123Z,15.14
2018-06-12T01:59:40.358Z,14.98
2018-06-12T02:02:09.612Z,14.96
2018-06-12T02:04:38.878Z,15.06
2018-06-12T02:07:08.090Z,15.06
2018-06-12T02:09:37.322Z,15.08
2018-06-12T02:12:06.531Z,15.31
2018-06-12T02:14:35.773Z,15.48
2018-06-12T02:17:05.300Z,15.28
2018-06-12T02:19:34.507Z,15.35
2018-06-12T02:22:03.720Z,15.21
2018-06-12T02:44:13.146Z,15.11
2018-06-12T02:49:18.426Z,15.03
2018-06-12T02:51:47.671Z,15.09
2018-06-12T02:54:16.871Z,15.11
2018-06-12T02:56:46.105Z,15.38
2018-06-12T02:59:15.326Z,15.28
2018-06-12T03:01:44.557Z,15.34
2018-06-12T03:04:13.766Z,15.46
2018-06-12T03:06:42.999Z,15.24
2018-06-12T03:09:12.219Z,15.10
2018-06-12T03:11:41.505Z,15.09
2018-06-12T03:14:10.730Z,15.09
2018-06-12T03:16:40.112Z,15.11
2018-06-12T03:19:09.318Z,15.16
2018-06-12T03:21:38.543Z,15.50
2018-06-12T03:24:07.590Z,15.39
2018-06-12T03:26:36.840Z,15.39
2018-06-12T03:29:06.074Z,15.40
2018-06-12T03:31:35.294Z,15.43
2018-06-12T03:34:04.526Z,15.42
2018-06-12T03:36:33.757Z,15.46
2018-06-12T03:39:02.955Z,15.63
2018-06-12T03:41:33.410Z,15.92
2018-06-12T03:44:02.627Z,15.47
2018-06-12T03:46:31.847Z,15.26
2018-06-12T03:49:01.064Z,15.64
2018-06-12T03:51:30.273Z,15.71
2018-06-12T03:53:59.478Z,15.78
2018-06-12T03:56:28.695Z,15.81
2018-06-12T03:58:57.919Z,15.61
2018-06-12T04:01:27.175Z,15.60
2018-06-12T04:03:56.420Z,15.77
2018-06-12T04:06:25.678Z,16.14
2018-06-12T04:08:54.976Z,16.50
2018-06-12T04:11:24.203Z,16.38
2018-06-12T04:13:53.414Z,16.34
2018-06-12T04:16:22.659Z,16.37
2018-06-12T04:18:51.876Z,16.36
2018-06-12T04:21:21.461Z,16.37
2018-06-12T04:23:50.682Z,16.11
2018-06-12T04:26:19.914Z,16.07
2018-06-12T04:28:49.206Z,16.21
2018-06-12T04:31:18.417Z,16.28
2018-06-12T04:33:47.659Z,16.58
2018-06-12T04:36:16.917Z,16.99
2018-06-12T04:38:46.146Z,17.02
2018-06-12T04:41:15.465Z,16.90
2018-06-12T04:43:44.722Z,16.95
2018-06-12T04:46:13.931Z,17.04
2018-06-12T04:48:43.227Z,17.31
2018-06-12T04:51:12.439Z,17.48
2018-06-12T04:53:41.743Z,17.60
2018-06-12T04:56:11.038Z,17.65
2018-06-12T04:58:40.342Z,17.70
2018-06-12T05:01:09.563Z,17.89
2018-06-12T05:03:38.862Z,17.97
2018-06-12T05:06:08.066Z,17.88
2018-06-12T05:08:37.279Z,18.02
2018-06-12T05:11:06.504Z,17.98
2018-06-12T05:13:35.738Z,17.78
2018-06-12T05:16:04.965Z,17.72
2018-06-12T05:18:34.205Z,17.74
2018-06-12T05:21:03.474Z,17.90
2018-06-12T05:23:32.688Z,18.38
2018-06-12T05:26:01.922Z,18.45
2018-06-12T05:28:31.172Z,18.10
2018-06-12T05:31:00.472Z,18.21
2018-06-12T05:33:29.706Z,18.20
2018-06-12T05:35:58.937Z,18.07
2018-06-12T05:38:28.371Z,17.99
2018-06-12T05:40:57.656Z,18.07
2018-06-12T05:43:26.952Z,18.07
2018-06-12T05:45:56.267Z,18.01
2018-06-12T05:48:25.483Z,17.99
2018-06-12T05:50:54.846Z,18.24
2018-06-12T05:53:24.107Z,18.64
2018-06-12T05:55:53.326Z,19.09
2018-06-12T05:58:22.535Z,19.41
2018-06-12T06:00:51.755Z,19.28
2018-06-12T06:03:21.070Z,19.14
2018-06-12T06:05:50.314Z,19.49
2018-06-12T06:08:19.547Z,19.96
2018-06-12T06:10:48.774Z,20.36
2018-06-12T06:13:17.824Z,20.70
2018-06-12T06:15:47.130Z,21.08
2018-06-12T06:18:16.358Z,20.94
2018-06-12T06:20:45.587Z,20.79
2018-06-12T06:23:14.816Z,20.69
2018-06-12T06:25:44.083Z,20.74
2018-06-12T06:28:13.359Z,20.54
2018-06-12T06:30:42.568Z,20.31
2018-06-12T06:33:11.823Z,20.35
2018-06-12T06:35:41.056Z,20.13
2018-06-12T06:38:10.426Z,20.26
2018-06-12T06:40:39.676Z,20.38
2018-06-12T06:43:08.995Z,20.27
2018-06-12T06:45:38.271Z,19.90
2018-06-12T06:48:07.592Z,19.80
2018-06-12T06:50:36.878Z,19.80
2018-06-12T06:53:06.191Z,19.99
2018-06-12T06:55:35.489Z,20.23
2018-06-12T06:58:04.841Z,20.15
2018-06-12T07:00:34.056Z,20.06
2018-06-12T07:03:03.268Z,20.06
2018-06-12T07:05:32.497Z,19.57
2018-06-12T07:08:01.736Z,19.47
2018-06-12T07:10:30.968Z,19.80
2018-06-12T07:13:00.186Z,19.63
2018-06-12T07:15:29.455Z,19.63
2018-06-12T07:17:58.666Z,19.82
2018-06-12T07:20:44.811Z,19.83
2018-06-12T07:23:14.006Z,20.03
2018-06-12T07:25:43.227Z,20.02
2018-06-12T07:28:12.416Z,19.80
2018-06-12T07:30:41.651Z,19.98
2018-06-12T07:33:10.879Z,20.12
2018-06-12T07:35:40.104Z,20.02
2018-06-12T07:38:09.318Z,19.86
2018-06-12T07:40:38.610Z,19.88
2018-06-12T07:43:07.847Z,19.65
2018-06-12T07:45:37.137Z,20.02
2018-06-12T07:48:06.418Z,20.33
2018-06-12T07:50:35.625Z,20.00
2018-06-12T07:53:04.923Z,19.75
2018-06-12T07:55:34.138Z,19.63
2018-06-12T07:58:03.409Z,20.02
2018-06-12T08:00:32.645Z,19.72
2018-06-12T08:03:01.957Z,20.15
2018-06-12T08:05:31.184Z,19.83
2018-06-12T08:08:00.395Z,19.81
2018-06-12T08:10:29.610Z,19.97
2018-06-12T08:12:58.852Z,19.85
2018-06-12T08:15:28.098Z,20.01
2018-06-12T08:18:28.506Z,20.03
2018-06-12T08:20:57.791Z,20.20
2018-06-12T08:23:27.080Z,20.38
2018-06-12T08:25:56.302Z,20.29
2018-06-12T08:28:25.510Z,20.19
2018-06-12T08:30:54.749Z,20.19
2018-06-12T08:33:25.231Z,20.34
2018-06-12T08:35:54.438Z,20.42
2018-06-12T08:38:23.647Z,20.57
2018-06-12T08:40:53.024Z,20.64
2018-06-12T08:43:22.246Z,19.88
2018-06-12T08:45:51.480Z,19.64
2018-06-12T08:48:20.698Z,19.75
2018-06-12T08:50:49.942Z,19.92
2018-06-12T08:53:19.234Z,20.20
2018-06-12T08:55:48.548Z,20.64
2018-06-12T08:58:17.841Z,22.07
2018-06-12T09:00:47.166Z,21.85
2018-06-12T09:03:16.382Z,22.97
2018-06-12T09:05:45.622Z,22.99
2018-06-12T09:08:14.841Z,22.56
2018-06-12T09:10:44.067Z,23.15
2018-06-12T09:13:13.279Z,24.01
2018-06-12T09:15:42.538Z,23.21
2018-06-12T09:18:11.754Z,24.12
2018-06-12T09:20:41.082Z,25.68
2018-06-12T09:23:10.383Z,26.97
2018-06-12T09:25:39.606Z,26.98
2018-06-12T09:28:08.856Z,28.05
2018-06-12T09:30:38.095Z,28.21
2018-06-12T09:33:07.330Z,29.02
2018-06-12T09:35:36.702Z,27.78
2018-06-12T09:38:06.231Z,26.92
2018-06-12T09:40:35.443Z,25.57
2018-06-12T09:43:04.942Z,24.60
2018-06-12T09:45:34.174Z,23.62
2018-06-12T09:48:03.418Z,23.23
2018-06-12T09:50:32.744Z,22.61
2018-06-12T09:53:01.967Z,22.66
2018-06-12T09:55:31.203Z,22.37
2018-06-12T09:58:00.442Z,22.31
2018-06-12T10:00:34.958Z,21.95
2018-06-12T10:03:04.201Z,21.26
2018-06-12T10:05:33.466Z,21.51
2018-06-12T10:08:02.699Z,21.92
2018-06-12T10:10:31.998Z,21.75
2018-06-12T10:13:01.312Z,21.56
2018-06-12T10:15:30.531Z,21.05
2018-06-12T10:17:59.493Z,21.20
2018-06-12T10:20:28.706Z,21.41
2018-06-12T10:22:57.907Z,21.33
2018-06-12T10:25:27.403Z,21.35
2018-06-12T10:27:56.609Z,21.09
2018-06-12T10:30:25.800Z,21.44
2018-06-12T10:32:55.023Z,21.60
2018-06-12T10:35:24.302Z,21.16
2018-06-12T10:37:53.607Z,21.48
2018-06-12T10:40:22.902Z,21.49
2018-06-12T10:42:52.106Z,22.02
2018-06-12T10:45:21.400Z,22.42
2018-06-12T10:47:50.627Z,22.61
2018-06-12T10:50:19.843Z,22.68
2018-06-12T10:52:49.071Z,23.02
2018-06-12T10:55:18.302Z,23.18
2018-06-12T10:57:47.550Z,23.80
2018-06-12T11:00:16.771Z,24.27
2018-06-12T11:02:46.006Z,25.19
2018-06-12T11:05:15.227Z,25.30
2018-06-12T11:07:44.694Z,26.44
2018-06-12T11:10:13.923Z,27.47
2018-06-12T11:12:43.141Z,28.09
2018-06-12T11:15:12.369Z,26.65
2018-06-12T11:17:41.617Z,28.89
2018-06-12T11:20:10.935Z,30.06
2018-06-12T11:22:40.315Z,30.05
2018-06-12T11:25:09.539Z,29.62
2018-06-12T11:27:38.758Z,30.16
2018-06-12T11:30:07.967Z,29.23
2018-06-12T11:32:38.042Z,29.99
2018-06-12T11:35:07.257Z,27.47
2018-06-12T11:37:36.495Z,27.28
2018-06-12T11:40:06.042Z,28.94
2018-06-12T11:42:35.291Z,27.41
2018-06-12T11:45:04.719Z,28.68
2018-06-12T11:47:34.010Z,26.85
2018-06-12T11:50:03.266Z,28.26
2018-06-12T11:52:32.523Z,27.73
2018-06-12T11:55:01.855Z,27.43
2018-06-12T11:57:31.055Z,26.28
2018-06-12T12:00:00.253Z,26.68
2018-06-12T12:02:29.475Z,25.78
2018-06-12T12:04:58.695Z,25.82
2018-06-12T12:07:27.923Z,25.30
2018-06-12T12:09:57.142Z,26.07
2018-06-12T12:12:26.366Z,25.33
2018-06-12T12:15:26.843Z,25.51
2018-06-12T12:17:56.106Z,25.93
2018-06-12T12:20:25.343Z,27.01
2018-06-12T12:22:54.791Z,26.55
2018-06-12T12:25:24.000Z,27.13
2018-06-12T12:27:53.199Z,27.10
2018-06-12T12:30:22.430Z,27.16
2018-06-12T12:32:51.679Z,27.49
2018-06-12T12:35:20.883Z,26.85
2018-06-12T12:37:50.098Z,27.07
2018-06-12T12:40:19.310Z,26.28
2018-06-12T12:42:48.522Z,25.85
2018-06-12T12:45:17.751Z,25.12
2018-06-12T12:47:46.995Z,25.82
2018-06-12T12:50:16.257Z,26.62
2018-06-12T12:52:45.494Z,27.28
2018-06-12T12:55:14.704Z,25.83
2018-06-12T12:57:43.930Z,24.17
2018-06-12T13:00:19.749Z,24.95
2018-06-12T13:02:48.972Z,24.16
2018-06-12T13:05:18.158Z,24.17
2018-06-12T13:07:47.402Z,23.78
2018-06-12T13:14:18.409Z,23.38
2018-06-12T13:16:47.709Z,23.79
2018-06-12T13:19:16.987Z,23.90
2018-06-12T13:21:46.199Z,23.64
2018-06-12T13:24:15.431Z,24.10
2018-06-12T13:26:44.699Z,24.29
2018-06-12T13:29:13.879Z,24.21
2018-06-12T13:31:43.122Z,23.96
2018-06-12T13:34:12.351Z,24.03
2018-06-12T13:36:41.592Z,23.52
2018-06-12T13:39:10.802Z,23.26
2018-06-12T13:41:40.094Z,22.94
2018-06-12T13:44:09.305Z,22.64
2018-06-12T13:46:38.545Z,22.73
2018-06-12T13:49:07.767Z,23.15
2018-06-12T13:51:36.979Z,23.66
2018-06-12T13:54:06.318Z,24.42
2018-06-12T13:56:35.546Z,23.90
2018-06-12T13:59:04.786Z,23.72
2018-06-12T14:01:34.118Z,23.60
2018-06-12T14:04:03.481Z,23.25
2018-06-12T14:06:32.683Z,23.19
2018-06-12T14:09:01.906Z,23.05
2018-06-12T14:11:31.184Z,22.59
2018-06-12T14:14:00.351Z,22.56
2018-06-12T14:16:29.635Z,22.30
2018-06-12T14:18:58.939Z,22.17
2018-06-12T14:21:28.174Z,22.06
2018-06-12T14:23:57.419Z,22.06
2018-06-12T14:26:26.661Z,22.01
2018-06-12T14:28:55.890Z,21.68
2018-06-12T14:31:25.105Z,21.32
2018-06-12T14:33:54.397Z,21.07
2018-06-12T14:36:23.572Z,20.94
2018-06-12T14:38:52.866Z,20.86
2018-06-12T14:41:22.074Z,20.59
2018-06-12T14:43:51.307Z,20.44
2018-06-12T14:46:20.552Z,20.43
2018-06-12T14:48:49.751Z,20.19
2018-06-12T14:51:18.962Z,20.12
2018-06-12T14:53:48.219Z,20.09
2018-06-12T14:56:17.477Z,20.08
2018-06-12T14:58:46.718Z,19.96
2018-06-12T15:01:15.985Z,19.85
2018-06-12T15:03:45.229Z,19.85
2018-06-12T15:06:14.478Z,19.92
2018-06-12T15:08:43.719Z,19.90
2018-06-12T15:11:12.959Z,19.82
2018-06-12T15:13:42.209Z,19.73
2018-06-12T15:16:11.565Z,19.88
2018-06-12T15:18:40.810Z,19.45
2018-06-12T15:21:10.061Z,19.42
2018-06-12T15:23:39.318Z,19.15
2018-06-12T15:26:08.512Z,19.08
2018-06-12T15:28:37.745Z,18.78
2018-06-12T15:31:07.109Z,18.73
2018-06-12T15:33:36.335Z,18.27
2018-06-12T15:36:05.632Z,18.09
2018-06-12T15:38:34.936Z,17.91
2018-06-12T15:41:04.174Z,17.66
2018-06-12T15:43:33.398Z,17.70
2018-06-12T15:46:02.655Z,17.63
2018-06-12T15:48:31.955Z,17.57
2018-06-12T15:51:01.302Z,17.67
2018-06-12T15:53:30.548Z,17.57
2018-06-12T15:55:59.778Z,17.59
2018-06-12T15:58:28.979Z,17.50
2018-06-12T16:00:58.200Z,17.57
2018-06-12T16:03:28.431Z,17.59
2018-06-12T16:05:57.664Z,17.55
2018-06-12T16:08:26.878Z,17.50
2018-06-12T16:10:56.114Z,17.65
2018-06-12T16:13:25.321Z,17.30
2018-06-12T16:15:54.565Z,17.36
2018-06-12T16:18:23.775Z,17.24
2018-06-12T16:21:07.566Z,17.19
2018-06-12T16:23:36.870Z,17.03
2018-06-12T16:26:06.147Z,16.99
2018-06-12T16:28:35.358Z,16.95
2018-06-12T16:31:04.580Z,16.78
2018-06-12T16:33:33.849Z,16.64
2018-06-12T16:36:03.091Z,16.55
2018-06-12T16:38:32.271Z,16.51
2018-06-12T16:41:01.507Z,16.48
2018-06-12T16:43:30.767Z,16.45
2018-06-12T16:45:59.982Z,16.35
2018-06-12T16:48:29.198Z,16.37
2018-06-12T16:50:58.430Z,16.37
2018-06-12T16:53:27.650Z,16.40
2018-06-12T16:55:56.861Z,16.23
2018-06-12T16:58:26.338Z,16.17
2018-06-12T17:00:55.552Z,16.08
2018-06-12T17:03:24.766Z,16.10
2018-06-12T17:05:54.006Z,16.06
2018-06-12T17:08:23.315Z,16.09
2018-06-12T17:10:52.538Z,15.98
2018-06-12T17:13:21.794Z,15.99
2018-06-12T17:15:51.119Z,16.00
2018-06-12T17:18:20.341Z,16.06
2018-06-12T17:20:49.561Z,16.02
2018-06-12T17:23:18.782Z,15.97
2018-06-12T17:25:48.014Z,15.92
2018-06-12T17:28:17.246Z,15.84
2018-06-12T17:30:46.458Z,15.73
2018-06-12T17:33:15.726Z,15.55
2018-06-12T17:35:44.954Z,15.40
2018-06-12T17:38:14.179Z,15.44
2018-06-12T17:40:43.418Z,15.62
2018-06-12T17:43:12.740Z,15.85
2018-06-12T17:45:42.003Z,15.85
2018-06-12T17:48:11.223Z,15.76
2018-06-12T17:50:40.451Z,15.85
2018-06-12T17:53:09.679Z,15.73
2018-06-12T17:55:38.656Z,15.83
2018-06-12T17:58:07.870Z,15.78
2018-06-12T18:00:37.132Z,15.76
2018-06-12T18:03:06.367Z,15.90
2018-06-12T18:05:35.510Z,15.72
2018-06-12T18:08:04.832Z,15.63
2018-06-12T18:10:34.055Z,15.91
2018-06-12T18:13:03.286Z,15.81
2018-06-12T18:15:32.500Z,15.95
2018-06-12T18:18:01.759Z,15.92
2018-06-12T18:20:31.036Z,16.07
2018-06-12T18:23:00.276Z,16.10
2018-06-12T18:25:29.515Z,16.11
2018-06-12T18:27:58.743Z,16.03
2018-06-12T18:30:28.017Z,16.08
2018-06-12T18:32:57.186Z,15.87
2018-06-12T18:35:26.426Z,15.96
2018-06-12T18:37:55.649Z,15.93
2018-06-12T18:40:24.928Z,15.79
2018-06-12T18:42:55.344Z,15.96
2018-06-12T18:45:24.554Z,15.96
2018-06-12T18:47:53.771Z,15.84
2018-06-12T18:50:22.992Z,15.62
2018-06-12T18:52:52.250Z,15.44
2018-06-12T18:55:21.472Z,15.51
2018-06-12T18:57:50.691Z,15.57
2018-06-12T19:00:19.903Z,15.49
2018-06-12T19:02:49.128Z,15.40
2018-06-12T19:05:18.343Z,15.33
2018-06-12T19:07:47.574Z,15.62
2018-06-12T19:10:16.836Z,15.52
2018-06-12T19:12:46.066Z,15.69
2018-06-12T19:15:15.291Z,15.52
2018-06-12T19:17:44.494Z,15.53
2018-06-12T19:20:13.706Z,15.58
2018-06-12T19:22:42.926Z,15.38
2018-06-12T19:25:12.178Z,15.17
2018-06-12T19:27:41.434Z,15.26
2018-06-12T19:30:10.666Z,15.35
2018-06-12T19:32:39.883Z,15.25
2018-06-12T19:35:09.338Z,15.27
2018-06-12T19:37:38.536Z,15.41
2018-06-12T19:40:07.740Z,15.53
2018-06-12T19:42:36.958Z,15.50
2018-06-12T19:45:06.210Z,15.33
2018-06-12T19:47:35.443Z,15.21
2018-06-12T19:50:04.700Z,15.30
2018-06-12T19:52:33.978Z,15.29
2018-06-12T19:55:03.307Z,15.36
2018-06-12T19:57:32.518Z,15.43
2018-06-12T20:00:01.747Z,15.42
2018-06-12T20:02:30.954Z,15.46
2018-06-12T20:05:00.206Z,15.44
2018-06-12T20:07:29.422Z,15.34
2018-06-12T20:09:58.662Z,15.35
2018-06-12T20:12:27.893Z,15.33
2018-06-12T20:14:57.144Z,15.35
2018-06-12T20:17:26.703Z,15.36
2018-06-12T20:19:55.998Z,15.40
2018-06-12T20:22:25.200Z,15.33
2018-06-12T20:24:54.427Z,15.27
2018-06-12T20:29:59.034Z,14.99
2018-06-12T20:32:28.287Z,15.02
2018-06-12T20:34:57.525Z,15.01
2018-06-12T20:37:26.748Z,15.00
2018-06-12T20:39:55.965Z,15.00
2018-06-12T20:42:25.218Z,15.07
2018-06-12T20:44:54.446Z,15.11
2018-06-12T20:47:23.674Z,15.05
2018-06-12T20:49:52.899Z,15.01
2018-06-12T20:52:22.146Z,15.08
2018-06-12T20:54:51.585Z,15.06
2018-06-12T20:57:20.843Z,15.06
2018-06-12T20:59:50.083Z,15.09
2018-06-12T21:02:19.310Z,15.04
2018-06-12T21:04:48.533Z,15.05
2018-06-12T21:07:17.854Z,15.48
2018-06-12T21:09:47.052Z,15.46
2018-06-12T21:12:16.315Z,15.36
2018-06-12T21:14:45.619Z,15.22
2018-06-12T21:17:14.826Z,15.10
2018-06-12T21:19:44.047Z,15.25
2018-06-12T21:22:13.252Z,15.20
2018-06-12T21:24:42.485Z,15.21
2018-06-12T21:27:11.691Z,15.37
2018-06-12T21:29:40.932Z,15.60
2018-06-12T21:32:10.244Z,15.44
2018-06-12T21:34:39.543Z,15.52
2018-06-12T21:37:08.749Z,15.63
2018-06-12T21:39:38.002Z,15.57
2018-06-12T21:42:07.248Z,15.44
2018-06-12T21:44:36.572Z,15.29
2018-06-12T21:47:05.798Z,15.49
2018-06-12T21:49:35.023Z,15.55
2018-06-12T21:52:04.251Z,15.46
2018-06-12T21:54:33.498Z,15.27
2018-06-12T21:57:02.714Z,15.21
2018-06-12T21:59:31.682Z,15.14
2018-06-12T22:02:00.978Z,15.28
2018-06-12T22:04:30.282Z,15.49
2018-06-12T22:06:59.502Z,15.49
2018-06-12T22:09:28.718Z,15.51
2018-06-12T22:11:57.930Z,15.44
2018-06-12T22:14:30.049Z,15.51
2018-06-12T22:16:59.303Z,15.50
2018-06-12T22:19:28.517Z,15.51
2018-06-12T22:21:57.744Z,15.42
2018-06-12T22:26:47.771Z,15.42
2018-06-12T22:29:16.978Z,15.41
2018-06-12T22:31:46.199Z,15.39
2018-06-12T22:34:15.410Z,15.31
2018-06-12T22:36:44.628Z,15.19
2018-06-12T22:39:13.870Z,15.19
2018-06-12T22:41:43.083Z,15.23
2018-06-12T22:44:12.297Z,15.21
2018-06-12T22:49:06.455Z,15.36
2018-06-12T22:51:35.961Z,15.32
2018-06-12T22:54:05.310Z,15.18
2018-06-12T22:56:34.519Z,15.17
2018-06-12T22:59:03.743Z,15.17
2018-06-12T23:01:33.012Z,15.11
2018-06-12T23:04:02.214Z,15.40
2018-06-12T23:06:31.443Z,15.36
2018-06-12T23:09:00.766Z,15.35
2018-06-12T23:11:30.000Z,15.63
2018-06-12T23:13:59.218Z,15.68
2018-06-12T23:16:28.456Z,15.56
2018-06-12T23:18:57.681Z,15.36
2018-06-12T23:21:45.723Z,15.18
2018-06-12T23:24:15.067Z,15.31
2018-06-12T23:26:44.281Z,15.42
2018-06-12T23:29:13.470Z,15.60
2018-06-12T23:31:42.720Z,15.54
2018-06-12T23:34:11.947Z,15.30
2018-06-12T23:36:41.203Z,15.42
2018-06-12T23:39:10.495Z,15.39
2018-06-12T23:41:39.698Z,15.60
2018-06-12T23:44:08.905Z,15.40
2018-06-12T23:46:38.117Z,15.45
2018-06-12T23:49:07.315Z,15.63
2018-06-12T23:51:36.537Z,15.76
2018-06-12T23:54:05.778Z,15.77
2018-06-12T23:56:36.023Z,15.45
2018-06-12T23:59:05.382Z,15.30
